sensor_id;sensor_type;location;lat;lon;timestamp;pressure;altitude;pressure_sealevel;temperature;humidity
12897;BME280;6516;35.028;32.372;2023-04-03T00:00:48;100149.31;;;11.36;67.03
12897;BME280;6516;35.028;32.372;2023-04-03T00:03:17;100149.50;;;11.27;67.56
12897;BME280;6516;35.028;32.372;2023-04-03T00:05:46;100145.69;;;10.98;68.93
12897;BME280;6516;35.028;32.372;2023-04-03T00:08:14;100137.88;;;10.94;69.55
12897;BME280;6516;35.028;32.372;2023-04-03T00:10:42;100129.03;;;10.96;69.80
12897;BME280;6516;35.028;32.372;2023-04-03T00:13:10;100128.97;;;11.01;70.07
12897;BME280;6516;35.028;32.372;2023-04-03T00:15:40;100129.81;;;11.01;70.29
12897;BME280;6516;35.028;32.372;2023-04-03T00:18:08;100130.81;;;10.98;70.52
12897;BME280;6516;35.028;32.372;2023-04-03T00:20:37;100119.50;;;10.91;70.35
12897;BME280;6516;35.028;32.372;2023-04-03T00:23:05;100115.19;;;10.87;70.42
12897;BME280;6516;35.028;32.372;2023-04-03T00:25:33;100116.88;;;10.91;70.04
12897;BME280;6516;35.028;32.372;2023-04-03T00:28:04;100120.16;;;11.02;69.82
12897;BME280;6516;35.028;32.372;2023-04-03T00:30:32;100114.88;;;11.03;69.55
12897;BME280;6516;35.028;32.372;2023-04-03T00:33:00;100109.91;;;10.88;69.91
12897;BME280;6516;35.028;32.372;2023-04-03T00:35:29;100123.31;;;10.75;70.54
12897;BME280;6516;35.028;32.372;2023-04-03T00:37:58;100121.00;;;10.58;71.26
12897;BME280;6516;35.028;32.372;2023-04-03T00:40:27;100121.28;;;10.45;71.92
12897;BME280;6516;35.028;32.372;2023-04-03T00:42:57;100117.97;;;10.32;72.74
12897;BME280;6516;35.028;32.372;2023-04-03T00:45:33;100117.16;;;10.29;72.86
12897;BME280;6516;35.028;32.372;2023-04-03T00:48:05;100111.47;;;10.53;71.58
12897;BME280;6516;35.028;32.372;2023-04-03T00:50:37;100106.88;;;10.64;71.29
12897;BME280;6516;35.028;32.372;2023-04-03T00:53:12;100106.94;;;10.59;71.59
12897;BME280;6516;35.028;32.372;2023-04-03T00:55:43;100109.56;;;10.61;71.17
12897;BME280;6516;35.028;32.372;2023-04-03T00:58:12;100110.19;;;10.73;70.40
12897;BME280;6516;35.028;32.372;2023-04-03T01:00:43;100101.19;;;10.85;69.89
12897;BME280;6516;35.028;32.372;2023-04-03T01:03:15;100098.50;;;10.88;70.22
12897;BME280;6516;35.028;32.372;2023-04-03T01:05:43;100104.81;;;10.79;70.73
12897;BME280;6516;35.028;32.372;2023-04-03T01:08:12;100110.19;;;10.73;71.01
12897;BME280;6516;35.028;32.372;2023-04-03T01:10:40;100100.50;;;10.75;70.92
12897;BME280;6516;35.028;32.372;2023-04-03T01:13:20;100102.03;;;10.87;70.45
12897;BME280;6516;35.028;32.372;2023-04-03T01:15:49;100114.47;;;10.79;71.28
12897;BME280;6516;35.028;32.372;2023-04-03T01:18:17;100103.28;;;10.68;71.84
12897;BME280;6516;35.028;32.372;2023-04-03T01:21:23;100100.84;;;10.59;72.51
12897;BME280;6516;35.028;32.372;2023-04-03T01:24:12;100105.31;;;10.54;72.79
12897;BME280;6516;35.028;32.372;2023-04-03T01:26:49;100107.06;;;10.55;73.10
12897;BME280;6516;35.028;32.372;2023-04-03T01:29:17;100102.69;;;10.54;73.33
12897;BME280;6516;35.028;32.372;2023-04-03T01:31:49;100100.06;;;10.54;73.21
12897;BME280;6516;35.028;32.372;2023-04-03T01:34:19;100099.81;;;10.66;72.45
12897;BME280;6516;35.028;32.372;2023-04-03T01:36:47;100092.47;;;10.81;71.97
12897;BME280;6516;35.028;32.372;2023-04-03T01:39:16;100093.28;;;10.85;71.69
12897;BME280;6516;35.028;32.372;2023-04-03T01:41:44;100083.63;;;10.85;71.55
12897;BME280;6516;35.028;32.372;2023-04-03T01:44:12;100080.16;;;10.83;71.63
12897;BME280;6516;35.028;32.372;2023-04-03T01:46:40;100078.34;;;10.85;71.51
12897;BME280;6516;35.028;32.372;2023-04-03T01:49:10;100076.50;;;10.90;71.36
12897;BME280;6516;35.028;32.372;2023-04-03T01:51:38;100079.91;;;10.95;70.84
12897;BME280;6516;35.028;32.372;2023-04-03T01:54:06;100074.59;;;10.97;70.72
12897;BME280;6516;35.028;32.372;2023-04-03T01:56:33;100079.97;;;10.93;71.12
12897;BME280;6516;35.028;32.372;2023-04-03T01:59:01;100076.34;;;10.96;70.55
12897;BME280;6516;35.028;32.372;2023-04-03T02:01:29;100075.31;;;11.05;68.99
12897;BME280;6516;35.028;32.372;2023-04-03T02:03:57;100078.81;;;11.05;69.30
12897;BME280;6516;35.028;32.372;2023-04-03T02:06:26;100082.34;;;11.04;69.46
12897;BME280;6516;35.028;32.372;2023-04-03T02:08:53;100080.63;;;11.03;69.30
12897;BME280;6516;35.028;32.372;2023-04-03T02:11:21;100088.53;;;11.02;69.47
12897;BME280;6516;35.028;32.372;2023-04-03T02:13:49;100090.22;;;11.06;68.72
12897;BME280;6516;35.028;32.372;2023-04-03T02:16:17;100092.75;;;11.10;68.03
12897;BME280;6516;35.028;32.372;2023-04-03T02:18:45;100094.31;;;11.21;67.78
12897;BME280;6516;35.028;32.372;2023-04-03T02:21:13;100095.19;;;11.19;68.13
12897;BME280;6516;35.028;32.372;2023-04-03T02:23:42;100093.69;;;11.08;68.97
12897;BME280;6516;35.028;32.372;2023-04-03T02:26:11;100099.19;;;10.98;69.85
12897;BME280;6516;35.028;32.372;2023-04-03T02:28:40;100096.59;;;10.96;69.73
12897;BME280;6516;35.028;32.372;2023-04-03T02:31:08;100094.22;;;10.82;71.10
12897;BME280;6516;35.028;32.372;2023-04-03T02:33:37;100097.97;;;10.69;71.51
12897;BME280;6516;35.028;32.372;2023-04-03T02:36:05;100101.75;;;10.56;72.41
12897;BME280;6516;35.028;32.372;2023-04-03T02:38:34;100099.16;;;10.55;72.27
12897;BME280;6516;35.028;32.372;2023-04-03T02:41:05;100101.72;;;10.58;71.80
12897;BME280;6516;35.028;32.372;2023-04-03T02:43:34;100089.16;;;10.72;70.81
12897;BME280;6516;35.028;32.372;2023-04-03T02:46:02;100089.06;;;10.76;70.55
12897;BME280;6516;35.028;32.372;2023-04-03T02:48:30;100094.22;;;10.81;70.55
12897;BME280;6516;35.028;32.372;2023-04-03T02:50:58;100088.06;;;10.83;70.65
12897;BME280;6516;35.028;32.372;2023-04-03T02:53:26;100088.06;;;10.83;70.48
12897;BME280;6516;35.028;32.372;2023-04-03T02:55:54;100088.97;;;10.81;71.07
12897;BME280;6516;35.028;32.372;2023-04-03T02:58:23;100091.72;;;10.76;71.57
12897;BME280;6516;35.028;32.372;2023-04-03T03:00:51;100092.72;;;10.69;72.01
12897;BME280;6516;35.028;32.372;2023-04-03T03:03:19;100092.72;;;10.69;71.96
12897;BME280;6516;35.028;32.372;2023-04-03T03:05:47;100090.00;;;10.74;71.79
12897;BME280;6516;35.028;32.372;2023-04-03T03:08:15;100092.53;;;10.78;71.62
12897;BME280;6516;35.028;32.372;2023-04-03T03:10:45;100084.75;;;10.74;71.83
12897;BME280;6516;35.028;32.372;2023-04-03T03:13:13;100090.06;;;10.69;72.22
12897;BME280;6516;35.028;32.372;2023-04-03T03:15:42;100090.16;;;10.66;72.37
12897;BME280;6516;35.028;32.372;2023-04-03T03:18:10;100079.50;;;10.72;72.04
12897;BME280;6516;35.028;32.372;2023-04-03T03:20:38;100077.72;;;10.74;72.16
12897;BME280;6516;35.028;32.372;2023-04-03T03:23:06;100075.34;;;10.59;73.12
12897;BME280;6516;35.028;32.372;2023-04-03T03:25:38;100077.50;;;10.41;74.60
12897;BME280;6516;35.028;32.372;2023-04-03T03:28:05;100084.72;;;10.28;74.73
12897;BME280;6516;35.028;32.372;2023-04-03T03:30:33;100072.63;;;10.18;75.41
12897;BME280;6516;35.028;32.372;2023-04-03T03:33:03;100077.91;;;10.17;75.58
12897;BME280;6516;35.028;32.372;2023-04-03T03:35:31;100083.09;;;10.21;75.39
12897;BME280;6516;35.028;32.372;2023-04-03T03:37:59;100076.94;;;10.22;75.74
12897;BME280;6516;35.028;32.372;2023-04-03T03:40:26;100087.44;;;10.24;75.99
12897;BME280;6516;35.028;32.372;2023-04-03T03:42:54;100083.94;;;10.23;75.83
12897;BME280;6516;35.028;32.372;2023-04-03T03:45:22;100078.66;;;10.25;76.03
12897;BME280;6516;35.028;32.372;2023-04-03T03:47:50;100082.16;;;10.25;76.08
12897;BME280;6516;35.028;32.372;2023-04-03T03:50:20;100083.06;;;10.23;76.33
12897;BME280;6516;35.028;32.372;2023-04-03T03:52:47;100080.44;;;10.23;76.17
12897;BME280;6516;35.028;32.372;2023-04-03T03:55:15;100078.84;;;10.13;77.30
12897;BME280;6516;35.028;32.372;2023-04-03T03:57:43;100081.38;;;10.20;77.21
12897;BME280;6516;35.028;32.372;2023-04-03T04:00:11;100082.97;;;10.29;77.27
12897;BME280;6516;35.028;32.372;2023-04-03T04:02:40;100081.97;;;10.36;77.03
12897;BME280;6516;35.028;32.372;2023-04-03T04:05:08;100082.00;;;10.33;77.10
12897;BME280;6516;35.028;32.372;2023-04-03T04:07:37;100082.69;;;10.42;77.00
12897;BME280;6516;35.028;32.372;2023-04-03T04:10:06;100085.13;;;10.54;77.08
12897;BME280;6516;35.028;32.372;2023-04-03T04:12:34;100083.06;;;10.70;77.16
12897;BME280;6516;35.028;32.372;2023-04-03T04:15:02;100076.66;;;10.83;77.09
12897;BME280;6516;35.028;32.372;2023-04-03T04:17:31;100085.28;;;10.91;76.70
12897;BME280;6516;35.028;32.372;2023-04-03T04:19:58;100085.88;;;11.03;76.52
12897;BME280;6516;35.028;32.372;2023-04-03T04:22:26;100082.88;;;11.22;75.95
12897;BME280;6516;35.028;32.372;2023-04-03T04:24:56;100077.19;;;11.40;75.93
12897;BME280;6516;35.028;32.372;2023-04-03T04:27:24;100080.44;;;11.51;75.90
12897;BME280;6516;35.028;32.372;2023-04-03T04:29:51;100078.22;;;11.72;76.30
12897;BME280;6516;35.028;32.372;2023-04-03T04:32:19;100084.63;;;11.97;76.52
12897;BME280;6516;35.028;32.372;2023-04-03T04:34:47;100069.88;;;12.24;75.95
12897;BME280;6516;35.028;32.372;2023-04-03T04:37:14;100070.28;;;12.42;74.42
12897;BME280;6516;35.028;32.372;2023-04-03T04:39:42;100083.06;;;12.57;73.42
12897;BME280;6516;35.028;32.372;2023-04-03T04:42:12;100080.88;;;12.73;72.22
12897;BME280;6516;35.028;32.372;2023-04-03T04:44:39;100084.84;;;12.89;71.21
12897;BME280;6516;35.028;32.372;2023-04-03T04:47:07;100093.03;;;13.10;70.36
12897;BME280;6516;35.028;32.372;2023-04-03T04:49:35;100085.97;;;13.40;70.58
12897;BME280;6516;35.028;32.372;2023-04-03T04:52:03;100091.88;;;13.77;70.90
12897;BME280;6516;35.028;32.372;2023-04-03T04:54:32;100090.78;;;14.10;72.21
12897;BME280;6516;35.028;32.372;2023-04-03T04:56:59;100090.44;;;14.46;73.78
12897;BME280;6516;35.028;32.372;2023-04-03T04:59:28;100086.56;;;14.81;74.31
12897;BME280;6516;35.028;32.372;2023-04-03T05:01:56;100088.09;;;15.11;74.32
12897;BME280;6516;35.028;32.372;2023-04-03T05:04:24;100079.88;;;15.41;74.67
12897;BME280;6516;35.028;32.372;2023-04-03T05:06:52;100082.19;;;15.72;74.17
12897;BME280;6516;35.028;32.372;2023-04-03T05:09:19;100081.03;;;16.00;73.58
12897;BME280;6516;35.028;32.372;2023-04-03T05:11:47;100076.28;;;16.28;73.45
12897;BME280;6516;35.028;32.372;2023-04-03T05:14:15;100083.06;;;16.57;72.74
12897;BME280;6516;35.028;32.372;2023-04-03T05:16:45;100087.06;;;16.87;72.19
12897;BME280;6516;35.028;32.372;2023-04-03T05:19:13;100085.84;;;17.14;70.99
12897;BME280;6516;35.028;32.372;2023-04-03T05:21:41;100072.19;;;17.40;69.79
12897;BME280;6516;35.028;32.372;2023-04-03T05:24:09;100079.06;;;17.64;68.98
12897;BME280;6516;35.028;32.372;2023-04-03T05:26:36;100079.53;;;17.90;67.36
12897;BME280;6516;35.028;32.372;2023-04-03T05:29:04;100074.00;;;18.12;66.83
12897;BME280;6516;35.028;32.372;2023-04-03T05:31:32;100083.75;;;18.30;66.05
12897;BME280;6516;35.028;32.372;2023-04-03T05:34:02;100089.81;;;18.50;64.12
12897;BME280;6516;35.028;32.372;2023-04-03T05:36:30;100086.91;;;18.72;64.24
12897;BME280;6516;35.028;32.372;2023-04-03T05:38:58;100079.69;;;18.91;63.69
12897;BME280;6516;35.028;32.372;2023-04-03T05:41:26;100080.59;;;19.07;62.30
12897;BME280;6516;35.028;32.372;2023-04-03T05:43:54;100080.72;;;19.21;61.75
12897;BME280;6516;35.028;32.372;2023-04-03T05:46:21;100083.22;;;19.41;61.64
12897;BME280;6516;35.028;32.372;2023-04-03T05:48:49;100083.84;;;19.62;61.02
12897;BME280;6516;35.028;32.372;2023-04-03T05:51:22;100094.78;;;19.88;60.44
12897;BME280;6516;35.028;32.372;2023-04-03T05:53:55;100092.34;;;19.99;58.67
12897;BME280;6516;35.028;32.372;2023-04-03T05:56:27;100086.91;;;20.32;57.05
12897;BME280;6516;35.028;32.372;2023-04-03T05:58:54;100084.53;;;20.27;56.46
12897;BME280;6516;35.028;32.372;2023-04-03T06:01:22;100087.41;;;20.38;55.75
12897;BME280;6516;35.028;32.372;2023-04-03T06:03:50;100094.03;;;20.47;55.50
12897;BME280;6516;35.028;32.372;2023-04-03T06:06:19;100088.66;;;20.76;53.55
12897;BME280;6516;35.028;32.372;2023-04-03T06:08:47;100091.66;;;20.86;53.72
12897;BME280;6516;35.028;32.372;2023-04-03T06:11:15;100095.53;;;20.96;54.00
12897;BME280;6516;35.028;32.372;2023-04-03T06:13:43;100090.09;;;21.11;53.06
12897;BME280;6516;35.028;32.372;2023-04-03T06:16:12;100087.81;;;21.33;52.35
12897;BME280;6516;35.028;32.372;2023-04-03T06:18:41;100093.38;;;21.58;51.70
12897;BME280;6516;35.028;32.372;2023-04-03T06:21:09;100085.13;;;21.75;50.82
12897;BME280;6516;35.028;32.372;2023-04-03T06:23:38;100085.94;;;22.04;49.16
12897;BME280;6516;35.028;32.372;2023-04-03T06:26:06;100082.13;;;22.20;48.67
12897;BME280;6516;35.028;32.372;2023-04-03T06:28:34;100079.72;;;22.30;48.91
12897;BME280;6516;35.028;32.372;2023-04-03T06:31:01;100079.94;;;22.39;48.25
12897;BME280;6516;35.028;32.372;2023-04-03T06:33:32;100072.41;;;22.58;48.46
12897;BME280;6516;35.028;32.372;2023-04-03T06:36:03;100075.03;;;22.72;46.40
12897;BME280;6516;35.028;32.372;2023-04-03T06:38:32;100072.44;;;22.83;46.76
12897;BME280;6516;35.028;32.372;2023-04-03T06:41:02;100075.47;;;23.04;46.53
12897;BME280;6516;35.028;32.372;2023-04-03T06:43:30;100069.59;;;23.24;46.90
12897;BME280;6516;35.028;32.372;2023-04-03T06:45:58;100070.97;;;23.29;46.41
12897;BME280;6516;35.028;32.372;2023-04-03T06:48:25;100068.59;;;23.50;46.37
12897;BME280;6516;35.028;32.372;2023-04-03T06:50:53;100061.25;;;23.64;45.37
12897;BME280;6516;35.028;32.372;2023-04-03T06:53:21;100067.53;;;23.88;45.11
12897;BME280;6516;35.028;32.372;2023-04-03T06:55:49;100072.56;;;24.05;45.05
12897;BME280;6516;35.028;32.372;2023-04-03T06:58:18;100071.47;;;24.08;43.62
12897;BME280;6516;35.028;32.372;2023-04-03T07:00:47;100072.84;;;24.13;41.62
12897;BME280;6516;35.028;32.372;2023-04-03T07:03:15;100070.16;;;24.37;42.54
12897;BME280;6516;35.028;32.372;2023-04-03T07:05:43;100065.69;;;24.48;42.51
12897;BME280;6516;35.028;32.372;2023-04-03T07:08:11;100069.56;;;24.68;42.20
12897;BME280;6516;35.028;32.372;2023-04-03T07:10:39;100072.91;;;24.71;41.82
12897;BME280;6516;35.028;32.372;2023-04-03T07:13:07;100066.94;;;24.90;41.84
12897;BME280;6516;35.028;32.372;2023-04-03T07:15:36;100072.81;;;24.84;41.56
12897;BME280;6516;35.028;32.372;2023-04-03T07:18:03;100065.88;;;25.14;41.26
12897;BME280;6516;35.028;32.372;2023-04-03T07:20:31;100070.53;;;25.23;40.62
12897;BME280;6516;35.028;32.372;2023-04-03T07:22:59;100070.06;;;25.18;41.09
12897;BME280;6516;35.028;32.372;2023-04-03T07:25:27;100072.91;;;25.28;40.21
12897;BME280;6516;35.028;32.372;2023-04-03T07:27:55;100075.25;;;25.32;40.93
12897;BME280;6516;35.028;32.372;2023-04-03T07:30:23;100070.34;;;25.48;40.55
12897;BME280;6516;35.028;32.372;2023-04-03T07:32:52;100078.91;;;25.64;40.45
12897;BME280;6516;35.028;32.372;2023-04-03T07:35:20;100078.69;;;25.67;39.90
12897;BME280;6516;35.028;32.372;2023-04-03T07:37:48;100075.97;;;25.45;39.66
12897;BME280;6516;35.028;32.372;2023-04-03T07:40:16;100078.56;;;25.47;39.20
12897;BME280;6516;35.028;32.372;2023-04-03T07:42:44;100082.63;;;25.52;39.25
12897;BME280;6516;35.028;32.372;2023-04-03T07:45:12;100084.31;;;25.64;38.75
12897;BME280;6516;35.028;32.372;2023-04-03T07:47:40;100088.25;;;25.93;38.49
12897;BME280;6516;35.028;32.372;2023-04-03T07:50:10;100084.63;;;26.15;38.61
12897;BME280;6516;35.028;32.372;2023-04-03T07:52:38;100083.75;;;26.25;39.01
12897;BME280;6516;35.028;32.372;2023-04-03T07:55:06;100082.22;;;26.43;38.62
12897;BME280;6516;35.028;32.372;2023-04-03T07:57:35;100078.97;;;26.60;38.85
12897;BME280;6516;35.028;32.372;2023-04-03T08:00:03;100076.13;;;26.62;38.32
12897;BME280;6516;35.028;32.372;2023-04-03T08:02:32;100081.16;;;26.55;38.67
12897;BME280;6516;35.028;32.372;2023-04-03T08:05:00;100088.22;;;26.47;38.41
12897;BME280;6516;35.028;32.372;2023-04-03T08:07:29;100086.88;;;26.41;38.72
12897;BME280;6516;35.028;32.372;2023-04-03T08:09:57;100093.22;;;26.51;38.70
12897;BME280;6516;35.028;32.372;2023-04-03T08:12:25;100083.41;;;26.50;38.90
12897;BME280;6516;35.028;32.372;2023-04-03T08:14:54;100083.41;;;26.61;39.45
12897;BME280;6516;35.028;32.372;2023-04-03T08:17:22;100074.31;;;26.83;39.09
12897;BME280;6516;35.028;32.372;2023-04-03T08:19:49;100072.22;;;26.86;39.15
12897;BME280;6516;35.028;32.372;2023-04-03T08:22:17;100078.06;;;26.91;39.57
12897;BME280;6516;35.028;32.372;2023-04-03T08:24:47;100081.50;;;26.93;40.04
12897;BME280;6516;35.028;32.372;2023-04-03T08:27:15;100082.00;;;27.08;39.90
12897;BME280;6516;35.028;32.372;2023-04-03T08:29:43;100075.47;;;27.10;39.64
12897;BME280;6516;35.028;32.372;2023-04-03T08:32:11;100071.63;;;27.03;39.93
12897;BME280;6516;35.028;32.372;2023-04-03T08:34:39;100078.72;;;27.04;39.59
12897;BME280;6516;35.028;32.372;2023-04-03T08:37:07;100081.97;;;26.98;39.36
12897;BME280;6516;35.028;32.372;2023-04-03T08:39:35;100079.59;;;27.05;39.48
12897;BME280;6516;35.028;32.372;2023-04-03T08:42:10;100075.50;;;26.90;38.50
12897;BME280;6516;35.028;32.372;2023-04-03T08:44:47;100074.53;;;27.12;37.89
12897;BME280;6516;35.028;32.372;2023-04-03T08:47:21;100075.47;;;27.10;36.53
12897;BME280;6516;35.028;32.372;2023-04-03T08:49:54;100076.28;;;27.22;36.94
12897;BME280;6516;35.028;32.372;2023-04-03T08:52:30;100077.94;;;26.93;37.22
12897;BME280;6516;35.028;32.372;2023-04-03T08:55:02;100081.34;;;27.15;36.46
12897;BME280;6516;35.028;32.372;2023-04-03T08:57:36;100074.09;;;27.16;36.39
12897;BME280;6516;35.028;32.372;2023-04-03T09:00:16;100082.31;;;27.26;36.61
12897;BME280;6516;35.028;32.372;2023-04-03T09:02:48;100081.84;;;27.41;37.77
12897;BME280;6516;35.028;32.372;2023-04-03T09:05:19;100074.38;;;27.64;37.34
12897;BME280;6516;35.028;32.372;2023-04-03T09:07:55;100070.78;;;27.54;36.94
12897;BME280;6516;35.028;32.372;2023-04-03T09:10:29;100075.38;;;27.63;37.19
12897;BME280;6516;35.028;32.372;2023-04-03T09:13:05;100080.66;;;27.64;36.78
12897;BME280;6516;35.028;32.372;2023-04-03T09:15:37;100065.00;;;27.68;37.49
12897;BME280;6516;35.028;32.372;2023-04-03T09:18:11;100080.06;;;27.91;36.87
12897;BME280;6516;35.028;32.372;2023-04-03T09:20:46;100076.25;;;28.03;37.92
12897;BME280;6516;35.028;32.372;2023-04-03T09:23:28;100078.09;;;28.02;37.46
12897;BME280;6516;35.028;32.372;2023-04-03T09:26:03;100066.69;;;27.99;37.40
12897;BME280;6516;35.028;32.372;2023-04-03T09:28:38;100074.41;;;28.13;38.17
12897;BME280;6516;35.028;32.372;2023-04-03T09:31:16;100068.31;;;28.30;38.23
12897;BME280;6516;35.028;32.372;2023-04-03T09:33:49;100062.06;;;28.39;38.31
12897;BME280;6516;35.028;32.372;2023-04-03T09:36:42;100063.94;;;28.48;38.10
12897;BME280;6516;35.028;32.372;2023-04-03T09:39:15;100059.81;;;28.72;36.91
12897;BME280;6516;35.028;32.372;2023-04-03T09:41:56;100058.78;;;28.64;36.64
12897;BME280;6516;35.028;32.372;2023-04-03T09:44:28;100059.63;;;28.74;35.92
12897;BME280;6516;35.028;32.372;2023-04-03T09:46:57;100061.38;;;28.75;36.48
12897;BME280;6516;35.028;32.372;2023-04-03T09:49:26;100056.47;;;28.88;38.38
12897;BME280;6516;35.028;32.372;2023-04-03T09:51:54;100053.50;;;28.72;38.45
12897;BME280;6516;35.028;32.372;2023-04-03T09:54:31;100047.09;;;28.73;40.51
12897;BME280;6516;35.028;32.372;2023-04-03T09:57:06;100051.38;;;28.56;39.61
12897;BME280;6516;35.028;32.372;2023-04-03T09:59:44;100045.69;;;28.50;40.28
12897;BME280;6516;35.028;32.372;2023-04-03T10:02:33;100043.53;;;28.63;38.37
12897;BME280;6516;35.028;32.372;2023-04-03T10:05:03;100050.50;;;28.56;39.76
12897;BME280;6516;35.028;32.372;2023-04-03T10:07:34;100047.41;;;28.41;40.48
12897;BME280;6516;35.028;32.372;2023-04-03T10:10:17;100043.38;;;28.55;40.71
12897;BME280;6516;35.028;32.372;2023-04-03T10:12:48;100043.22;;;28.28;42.00
12897;BME280;6516;35.028;32.372;2023-04-03T10:15:22;100035.06;;;28.09;42.90
12897;BME280;6516;35.028;32.372;2023-04-03T10:18:02;100038.63;;;28.19;41.82
12897;BME280;6516;35.028;32.372;2023-04-03T10:20:39;100035.06;;;28.09;42.57
12897;BME280;6516;35.028;32.372;2023-04-03T10:23:17;100041.50;;;28.08;40.79
12897;BME280;6516;35.028;32.372;2023-04-03T10:25:55;100039.44;;;27.91;43.61
12897;BME280;6516;35.028;32.372;2023-04-03T10:28:33;100037.31;;;27.94;44.16
12897;BME280;6516;35.028;32.372;2023-04-03T10:31:14;100030.69;;;27.68;42.65
12897;BME280;6516;35.028;32.372;2023-04-03T10:33:55;100034.41;;;27.77;43.50
12897;BME280;6516;35.028;32.372;2023-04-03T10:36:34;100020.84;;;27.67;43.71
12897;BME280;6516;35.028;32.372;2023-04-03T10:39:17;100023.59;;;27.37;46.10
12897;BME280;6516;35.028;32.372;2023-04-03T10:42:00;100017.22;;;27.48;45.33
12897;BME280;6516;35.028;32.372;2023-04-03T10:44:37;100012.22;;;27.43;45.13
12897;BME280;6516;35.028;32.372;2023-04-03T10:47:16;100010.13;;;27.56;44.98
12897;BME280;6516;35.028;32.372;2023-04-03T10:49:53;100014.78;;;27.45;45.69
12897;BME280;6516;35.028;32.372;2023-04-03T10:52:30;100013.78;;;27.46;44.81
12897;BME280;6516;35.028;32.372;2023-04-03T10:55:18;100009.34;;;27.75;44.38
12897;BME280;6516;35.028;32.372;2023-04-03T10:57:53;99998.22;;;27.68;45.44
12897;BME280;6516;35.028;32.372;2023-04-03T11:00:26;99996.34;;;27.59;44.10
12897;BME280;6516;35.028;32.372;2023-04-03T11:03:05;99991.63;;;27.61;44.22
12897;BME280;6516;35.028;32.372;2023-04-03T11:05:39;99991.94;;;27.68;45.10
12897;BME280;6516;35.028;32.372;2023-04-03T11:08:15;100003.25;;;27.82;45.73
12897;BME280;6516;35.028;32.372;2023-04-03T11:10:54;99996.91;;;27.63;45.51
12897;BME280;6516;35.028;32.372;2023-04-03T11:13:28;99995.34;;;27.60;43.73
12897;BME280;6516;35.028;32.372;2023-04-03T11:16:04;99992.66;;;27.79;43.96
12897;BME280;6516;35.028;32.372;2023-04-03T11:18:37;99996.16;;;27.61;43.76
12897;BME280;6516;35.028;32.372;2023-04-03T11:21:12;99999.50;;;27.34;45.17
12897;BME280;6516;35.028;32.372;2023-04-03T11:23:44;100000.19;;;27.27;43.86
12897;BME280;6516;35.028;32.372;2023-04-03T11:26:14;99998.72;;;26.72;46.34
12897;BME280;6516;35.028;32.372;2023-04-03T11:28:43;99993.84;;;26.66;45.63
12897;BME280;6516;35.028;32.372;2023-04-03T11:31:23;99999.38;;;26.85;45.87
12897;BME280;6516;35.028;32.372;2023-04-03T11:34:08;100005.84;;;26.93;46.17
12897;BME280;6516;35.028;32.372;2023-04-03T11:36:46;100000.78;;;27.09;46.05
12897;BME280;6516;35.028;32.372;2023-04-03T11:39:21;99994.78;;;27.27;44.77
12897;BME280;6516;35.028;32.372;2023-04-03T11:41:51;100000.91;;;27.29;44.92
12897;BME280;6516;35.028;32.372;2023-04-03T11:44:38;99994.78;;;27.27;45.38
12897;BME280;6516;35.028;32.372;2023-04-03T11:47:08;100006.88;;;27.23;45.83
12897;BME280;6516;35.028;32.372;2023-04-03T11:49:56;99988.75;;;27.44;45.88
12897;BME280;6516;35.028;32.372;2023-04-03T11:52:58;99984.22;;;27.63;44.96
12897;BME280;6516;35.028;32.372;2023-04-03T11:55:43;99989.19;;;27.58;44.92
12897;BME280;6516;35.028;32.372;2023-04-03T11:58:14;99981.06;;;27.58;45.00
12897;BME280;6516;35.028;32.372;2023-04-03T12:01:06;99994.63;;;27.68;44.96
12897;BME280;6516;35.028;32.372;2023-04-03T12:10:01;99973.94;;;27.48;45.23
12897;BME280;6516;35.028;32.372;2023-04-03T12:12:41;99978.53;;;27.57;44.69
12897;BME280;6516;35.028;32.372;2023-04-03T12:15:23;99969.69;;;27.55;44.01
12897;BME280;6516;35.028;32.372;2023-04-03T12:17:52;99971.25;;;27.57;44.51
12897;BME280;6516;35.028;32.372;2023-04-03T12:20:55;99969.28;;;27.69;43.88
12897;BME280;6516;35.028;32.372;2023-04-03T12:23:28;99959.13;;;27.52;44.50
12897;BME280;6516;35.028;32.372;2023-04-03T12:26:06;99953.88;;;27.50;44.26
12897;BME280;6516;35.028;32.372;2023-04-03T12:28:49;99958.84;;;27.55;43.86
12897;BME280;6516;35.028;32.372;2023-04-03T12:31:19;99953.28;;;27.47;44.20
12897;BME280;6516;35.028;32.372;2023-04-03T12:34:06;99949.31;;;27.41;44.96
12897;BME280;6516;35.028;32.372;2023-04-03T12:36:50;99939.16;;;27.34;46.16
12897;BME280;6516;35.028;32.372;2023-04-03T12:39:47;99936.00;;;27.29;45.88
12897;BME280;6516;35.028;32.372;2023-04-03T12:45:41;99929.94;;;27.06;46.33
12897;BME280;6516;35.028;32.372;2023-04-03T12:48:15;99919.47;;;26.62;47.33
12897;BME280;6516;35.028;32.372;2023-04-03T12:50:46;99920.19;;;26.43;48.40
12897;BME280;6516;35.028;32.372;2023-04-03T12:53:18;99914.00;;;26.52;48.68
12897;BME280;6516;35.028;32.372;2023-04-03T12:55:53;99908.31;;;26.55;47.68
12897;BME280;6516;35.028;32.372;2023-04-03T12:58:23;99904.91;;;26.33;48.16
12897;BME280;6516;35.028;32.372;2023-04-03T13:01:00;99899.03;;;26.07;49.15
12897;BME280;6516;35.028;32.372;2023-04-03T13:03:30;99890.94;;;26.07;49.05
12897;BME280;6516;35.028;32.372;2023-04-03T13:06:00;99896.34;;;26.07;49.46
12897;BME280;6516;35.028;32.372;2023-04-03T13:08:29;99893.59;;;25.87;50.59
12897;BME280;6516;35.028;32.372;2023-04-03T13:11:02;99885.22;;;25.90;49.95
12897;BME280;6516;35.028;32.372;2023-04-03T13:13:33;99885.34;;;25.99;50.00
12897;BME280;6516;35.028;32.372;2023-04-03T13:16:08;99884.06;;;25.72;50.26
12897;BME280;6516;35.028;32.372;2023-04-03T13:18:37;99884.44;;;25.36;51.08
12897;BME280;6516;35.028;32.372;2023-04-03T13:21:07;99879.91;;;25.25;51.90
12897;BME280;6516;35.028;32.372;2023-04-03T13:23:44;99868.19;;;25.26;51.91